createdAt,value
2022-12-29T00:02:30.203Z,18.27
2022-12-29T00:05:05.619Z,13.95
2022-12-29T00:07:42.187Z,19.33
2022-12-29T00:10:16.660Z,17.00
2022-12-29T00:13:07.634Z,15.85
2022-12-29T00:15:43.483Z,13.30
2022-12-29T00:18:19.181Z,15.85
2022-12-29T00:21:12.548Z,12.50
2022-12-29T00:24:06.444Z,22.27
2022-12-29T00:26:59.501Z,15.88
2022-12-29T00:29:51.242Z,17.60
2022-12-29T00:32:45.369Z,14.18
2022-12-29T00:35:22.294Z,16.88
2022-12-29T00:38:17.312Z,14.35
2022-12-29T00:41:10.919Z,15.82
2022-12-29T00:44:01.455Z,14.75
2022-12-29T00:46:38.638Z,17.10
2022-12-29T00:49:31.360Z,16.65
2022-12-29T00:52:06.953Z,17.40
2022-12-29T00:54:43.239Z,15.77
2022-12-29T00:57:20.015Z,15.07
2022-12-29T00:59:55.557Z,16.17
2022-12-29T01:02:31.120Z,17.75
2022-12-29T01:05:05.927Z,23.50
2022-12-29T01:07:40.620Z,18.30
2022-12-29T01:10:14.651Z,20.27
2022-12-29T01:12:52.970Z,16.50
2022-12-29T01:15:29.766Z,18.13
2022-12-29T01:18:05.030Z,20.98
2022-12-29T01:20:40.544Z,20.58
2022-12-29T01:23:15.424Z,18.33
2022-12-29T01:25:52.988Z,17.55
2022-12-29T01:28:29.928Z,17.40
2022-12-29T01:31:07.419Z,18.60
2022-12-29T01:33:42.799Z,19.63
2022-12-29T01:36:18.521Z,21.05
2022-12-29T01:38:53.441Z,20.90
2022-12-29T01:41:29.271Z,18.83
2022-12-29T01:44:06.485Z,18.60
2022-12-29T01:46:43.088Z,17.45
2022-12-29T01:49:21.063Z,15.05
2022-12-29T01:51:58.126Z,19.08
2022-12-29T01:54:36.382Z,20.05
2022-12-29T01:57:12.501Z,15.10
2022-12-29T01:59:57.377Z,18.00
2022-12-29T02:02:34.278Z,12.65
2022-12-29T02:05:13.685Z,12.85
2022-12-29T02:07:50.534Z,17.35
2022-12-29T02:10:28.016Z,16.33
2022-12-29T02:13:05.052Z,13.60
2022-12-29T02:15:57.515Z,14.88
2022-12-29T02:18:44.273Z,12.00
2022-12-29T02:21:45.428Z,17.27
2022-12-29T02:24:56.713Z,19.52
2022-12-29T02:27:49.611Z,16.63
2022-12-29T02:30:45.692Z,15.15
2022-12-29T02:33:37.625Z,16.55
2022-12-29T02:36:16.880Z,17.05
2022-12-29T02:39:07.429Z,15.80
2022-12-29T02:41:50.500Z,18.58
2022-12-29T02:44:35.581Z,16.00
2022-12-29T02:47:20.564Z,16.30
2022-12-29T02:50:03.112Z,16.20
2022-12-29T02:52:43.380Z,16.63
2022-12-29T02:55:17.714Z,19.33
2022-12-29T02:57:54.100Z,15.75
2022-12-29T03:00:30.045Z,12.90
2022-12-29T03:03:18.477Z,14.07
2022-12-29T03:06:18.185Z,12.35
2022-12-29T03:09:00.307Z,16.02
2022-12-29T03:12:00.279Z,11.90
2022-12-29T03:14:58.477Z,11.20
2022-12-29T03:17:37.320Z,10.85
2022-12-29T03:20:44.261Z,8.15
2022-12-29T03:23:23.644Z,9.40
2022-12-29T03:26:05.755Z,9.07
2022-12-29T03:28:44.108Z,8.02
2022-12-29T03:31:26.160Z,9.20
2022-12-29T03:34:08.632Z,9.32
2022-12-29T03:36:48.895Z,10.63
2022-12-29T03:39:25.698Z,12.07
2022-12-29T03:42:04.524Z,12.18
2022-12-29T03:44:41.958Z,11.40
2022-12-29T03:47:19.004Z,9.35
2022-12-29T03:49:55.184Z,13.15
2022-12-29T03:52:32.608Z,8.93
2022-12-29T03:55:07.616Z,12.38
2022-12-29T03:57:42.767Z,13.30
2022-12-29T04:00:22.719Z,10.30
2022-12-29T04:02:58.755Z,11.13
2022-12-29T04:05:35.731Z,13.85
2022-12-29T04:08:12.612Z,11.18
2022-12-29T04:10:47.365Z,10.90
2022-12-29T04:13:24.644Z,11.15
2022-12-29T04:16:00.633Z,12.00
2022-12-29T04:18:35.451Z,10.20
2022-12-29T04:21:11.289Z,12.82
2022-12-29T04:23:50.787Z,11.65
2022-12-29T04:26:25.890Z,10.38
2022-12-29T04:29:07.012Z,9.27
2022-12-29T04:32:20.715Z,8.65
2022-12-29T04:34:58.108Z,10.77
2022-12-29T04:37:33.236Z,10.88
2022-12-29T04:40:10.992Z,10.73
2022-12-29T04:42:46.074Z,12.85
2022-12-29T04:45:21.402Z,14.00
2022-12-29T04:48:08.183Z,10.80
2022-12-29T04:51:03.084Z,14.38
2022-12-29T04:53:43.921Z,13.57
2022-12-29T04:56:21.125Z,14.90
2022-12-29T04:58:56.803Z,12.68
2022-12-29T05:01:31.692Z,12.40
2022-12-29T05:04:07.692Z,11.63
2022-12-29T05:06:43.865Z,12.27
2022-12-29T05:09:18.845Z,13.30
2022-12-29T05:11:55.715Z,12.15
2022-12-29T05:14:31.149Z,12.25
2022-12-29T05:17:06.675Z,13.77
2022-12-29T05:19:43.276Z,12.25
2022-12-29T05:22:18.426Z,10.75
2022-12-29T05:24:53.574Z,11.55
2022-12-29T05:27:31.090Z,11.90
2022-12-29T05:30:14.468Z,12.00
2022-12-29T05:32:49.117Z,14.38
2022-12-29T05:35:25.002Z,16.17
2022-12-29T05:38:00.978Z,11.80
2022-12-29T05:40:36.327Z,11.00
2022-12-29T05:43:17.548Z,15.90
2022-12-29T05:46:14.164Z,16.15
2022-12-29T05:49:15.915Z,10.82
2022-12-29T05:52:05.133Z,14.32
2022-12-29T05:54:41.141Z,14.18
2022-12-29T05:57:20.067Z,13.45
2022-12-29T06:00:04.911Z,13.45
2022-12-29T06:02:48.504Z,11.93
2022-12-29T06:05:24.901Z,13.55
2022-12-29T06:08:01.269Z,16.23
2022-12-29T06:10:36.679Z,20.08
2022-12-29T06:13:12.932Z,12.02
2022-12-29T06:15:54.077Z,14.27
2022-12-29T06:18:30.666Z,14.95
2022-12-29T06:21:07.323Z,16.40
2022-12-29T06:23:44.366Z,14.52
2022-12-29T06:26:19.344Z,11.73
2022-12-29T06:28:56.519Z,11.50
2022-12-29T06:31:41.762Z,12.63
2022-12-29T06:34:19.675Z,11.15
2022-12-29T06:36:54.454Z,9.88
2022-12-29T06:39:30.133Z,12.20
2022-12-29T06:42:13.295Z,13.02
2022-12-29T06:45:23.509Z,11.82
2022-12-29T06:47:59.882Z,12.40
2022-12-29T06:50:34.876Z,17.73
2022-12-29T06:53:38.924Z,13.65
2022-12-29T06:56:27.369Z,13.75
2022-12-29T06:59:15.256Z,12.48
2022-12-29T07:02:01.366Z,11.30
2022-12-29T07:04:48.780Z,14.18
2022-12-29T07:07:30.655Z,14.60
2022-12-29T07:10:35.678Z,15.50
2022-12-29T07:13:17.755Z,14.15
2022-12-29T07:16:03.091Z,12.93
2022-12-29T07:18:53.316Z,12.05
2022-12-29T07:21:30.065Z,15.60
2022-12-29T07:24:04.762Z,12.88
2022-12-29T07:26:39.974Z,15.65
2022-12-29T07:29:14.648Z,12.45
2022-12-29T07:31:49.152Z,14.80
2022-12-29T07:34:26.850Z,16.75
2022-12-29T07:37:04.556Z,15.30
2022-12-29T07:39:38.897Z,13.70
2022-12-29T07:42:13.663Z,13.52
2022-12-29T07:44:51.197Z,12.52
2022-12-29T07:47:48.579Z,11.95
2022-12-29T07:50:25.900Z,13.07
2022-12-29T07:53:09.056Z,18.83
2022-12-29T07:55:43.827Z,13.43
2022-12-29T07:58:19.092Z,12.35
2022-12-29T08:00:53.660Z,16.65
2022-12-29T08:03:28.705Z,13.27
2022-12-29T08:06:03.694Z,12.27
2022-12-29T08:08:41.603Z,13.85
2022-12-29T08:11:17.893Z,15.35
2022-12-29T08:13:52.641Z,13.82
2022-12-29T08:16:27.453Z,14.52
2022-12-29T08:19:03.308Z,12.43
2022-12-29T08:21:37.801Z,13.15
2022-12-29T08:24:15.321Z,10.43
2022-12-29T08:26:50.215Z,14.55
2022-12-29T08:29:25.588Z,14.88
2022-12-29T08:31:59.921Z,11.25
2022-12-29T08:34:34.608Z,12.23
2022-12-29T08:37:09.181Z,12.00
2022-12-29T08:39:46.757Z,11.90
2022-12-29T08:42:21.088Z,15.15
2022-12-29T08:44:55.444Z,11.30
2022-12-29T08:47:30.277Z,11.98
2022-12-29T08:50:05.379Z,16.50
2022-12-29T08:52:39.699Z,13.25
2022-12-29T08:55:16.894Z,12.45
2022-12-29T08:57:51.614Z,12.90
2022-12-29T09:00:28.269Z,13.25
2022-12-29T09:03:03.937Z,12.95
2022-12-29T09:05:38.680Z,15.82
2022-12-29T09:08:13.833Z,15.07
2022-12-29T09:10:52.121Z,17.45
2022-12-29T09:13:26.947Z,15.77
2022-12-29T09:16:04.746Z,14.77
2022-12-29T09:18:40.237Z,13.40
2022-12-29T09:21:17.125Z,17.95
2022-12-29T09:23:52.080Z,14.13
2022-12-29T09:26:29.413Z,17.67
2022-12-29T09:29:04.092Z,14.52
2022-12-29T09:31:39.310Z,14.13
2022-12-29T09:34:13.671Z,14.38
2022-12-29T09:36:48.151Z,13.48
2022-12-29T09:39:22.761Z,16.27
2022-12-29T09:42:05.863Z,12.05
2022-12-29T09:44:47.789Z,11.68
2022-12-29T09:47:24.179Z,19.92
2022-12-29T09:50:00.954Z,14.55
2022-12-29T09:52:38.435Z,13.77
2022-12-29T09:55:16.219Z,12.40
2022-12-29T09:57:55.058Z,9.93
2022-12-29T10:00:34.561Z,14.15
2022-12-29T10:03:12.493Z,13.45
2022-12-29T10:05:52.431Z,10.20
2022-12-29T10:08:33.479Z,11.65
2022-12-29T10:11:13.875Z,11.25
2022-12-29T10:13:57.446Z,11.68
2022-12-29T10:16:35.881Z,12.75
2022-12-29T10:19:33.358Z,12.70
2022-12-29T10:22:15.794Z,12.25
2022-12-29T10:24:52.007Z,11.07
2022-12-29T10:27:26.449Z,14.23
2022-12-29T10:30:04.486Z,15.07
2022-12-29T10:32:41.294Z,10.35
2022-12-29T10:35:19.660Z,12.27
2022-12-29T10:37:57.215Z,12.82
2022-12-29T10:40:33.992Z,12.07
2022-12-29T10:43:19.496Z,15.23
2022-12-29T10:46:00.125Z,15.80
2022-12-29T10:48:36.655Z,16.58
2022-12-29T10:51:12.026Z,17.73
2022-12-29T10:53:49.649Z,11.10
2022-12-29T10:56:28.958Z,16.75
2022-12-29T10:59:06.067Z,15.43
2022-12-29T11:01:45.372Z,15.02
2022-12-29T11:04:27.691Z,13.10
2022-12-29T11:07:03.372Z,15.52
2022-12-29T11:09:42.569Z,12.82
2022-12-29T11:12:28.859Z,20.17
2022-12-29T11:15:18.394Z,16.90
2022-12-29T11:17:56.701Z,19.55
2022-12-29T11:20:35.847Z,15.45
2022-12-29T11:23:11.454Z,13.45
2022-12-29T11:25:46.323Z,17.15
2022-12-29T11:28:22.101Z,19.42
2022-12-29T11:31:05.168Z,17.20
2022-12-29T11:33:43.367Z,16.88
2022-12-29T11:36:19.999Z,15.27
2022-12-29T11:38:55.958Z,19.20
2022-12-29T11:41:31.557Z,18.00
2022-12-29T11:44:07.705Z,17.65
2022-12-29T11:46:44.507Z,17.02
2022-12-29T11:49:26.089Z,15.32
2022-12-29T11:52:01.554Z,16.30
2022-12-29T11:54:37.245Z,18.23
2022-12-29T11:57:16.863Z,18.05
2022-12-29T11:59:58.031Z,15.90
2022-12-29T12:02:47.184Z,16.08
2022-12-29T12:05:33.172Z,14.82
2022-12-29T12:08:14.920Z,14.77
2022-12-29T12:10:59.990Z,14.38
2022-12-29T12:13:38.459Z,13.00
2022-12-29T12:16:15.641Z,13.25
2022-12-29T12:18:54.729Z,11.73
2022-12-29T12:21:41.896Z,12.85
2022-12-29T12:24:29.174Z,13.13
2022-12-29T12:27:07.236Z,12.75
2022-12-29T12:29:44.726Z,10.77
2022-12-29T12:32:22.197Z,10.38
2022-12-29T12:34:57.482Z,11.18
2022-12-29T12:37:55.009Z,12.68
2022-12-29T12:41:00.915Z,11.18
2022-12-29T12:43:47.160Z,12.65
2022-12-29T12:46:54.616Z,11.50
2022-12-29T12:50:03.786Z,8.90
2022-12-29T12:52:56.697Z,9.48
2022-12-29T12:55:47.469Z,12.90
2022-12-29T12:58:32.106Z,12.77
2022-12-29T13:01:21.843Z,14.13
2022-12-29T13:04:11.785Z,10.98
2022-12-29T13:06:51.297Z,11.18
2022-12-29T13:09:40.855Z,7.03
2022-12-29T13:12:20.097Z,10.18
2022-12-29T13:15:06.039Z,10.40
2022-12-29T13:17:45.245Z,9.05
2022-12-29T13:20:26.488Z,10.93
2022-12-29T13:23:05.326Z,9.55
2022-12-29T13:25:44.595Z,13.98
2022-12-29T13:28:23.094Z,11.18
2022-12-29T13:31:00.887Z,9.35
2022-12-29T13:33:40.662Z,10.10
2022-12-29T13:36:20.503Z,8.90
2022-12-29T13:38:57.373Z,9.63
2022-12-29T13:41:37.377Z,9.82
2022-12-29T13:44:12.679Z,10.60
2022-12-29T13:46:50.115Z,8.57
2022-12-29T13:49:25.201Z,10.70
2022-12-29T13:52:01.452Z,10.77
2022-12-29T13:54:41.740Z,11.63
2022-12-29T13:57:27.554Z,9.32
2022-12-29T14:00:05.518Z,10.02
2022-12-29T14:02:53.100Z,12.18
2022-12-29T14:05:34.790Z,9.68
2022-12-29T14:08:11.586Z,9.15
2022-12-29T14:10:53.551Z,7.70
2022-12-29T14:13:34.200Z,11.10
2022-12-29T14:16:09.147Z,9.88
2022-12-29T14:18:49.756Z,7.93
2022-12-29T14:21:30.744Z,11.07
2022-12-29T14:24:41.420Z,9.45
2022-12-29T14:27:56.741Z,8.00
2022-12-29T14:30:57.748Z,9.60
2022-12-29T14:33:36.064Z,12.07
2022-12-29T14:36:30.636Z,8.68
2022-12-29T14:39:08.121Z,7.35
2022-12-29T14:41:45.318Z,12.10
2022-12-29T14:44:26.071Z,9.10
2022-12-29T14:47:12.515Z,10.95
2022-12-29T14:49:50.052Z,10.23
2022-12-29T14:52:28.342Z,8.90
2022-12-29T14:55:03.948Z,10.15
2022-12-29T14:57:40.619Z,11.15
2022-12-29T15:00:21.847Z,9.13
2022-12-29T15:03:06.160Z,11.98
2022-12-29T15:05:43.203Z,10.48
2022-12-29T15:08:19.168Z,9.32
2022-12-29T15:10:57.824Z,11.60
2022-12-29T15:13:46.081Z,11.52
2022-12-29T15:16:31.222Z,13.10
2022-12-29T15:19:11.745Z,10.50
2022-12-29T15:21:50.823Z,14.25
2022-12-29T15:24:25.527Z,10.55
2022-12-29T15:27:03.918Z,12.93
2022-12-29T15:29:43.307Z,12.77
2022-12-29T15:32:32.135Z,10.82
2022-12-29T15:35:29.836Z,12.73
2022-12-29T15:38:06.373Z,13.55
2022-12-29T15:40:42.563Z,11.45
2022-12-29T15:43:37.071Z,10.70
2022-12-29T15:46:17.857Z,16.35
2022-12-29T15:48:53.520Z,12.38
2022-12-29T15:51:39.574Z,12.23
2022-12-29T15:54:23.712Z,13.27
2022-12-29T15:57:01.855Z,10.80
2022-12-29T15:59:40.352Z,17.92
2022-12-29T16:02:17.179Z,13.52
2022-12-29T16:05:16.776Z,17.27
2022-12-29T16:08:00.901Z,13.70
2022-12-29T16:10:38.416Z,14.43
2022-12-29T16:13:26.366Z,17.70
2022-12-29T16:16:03.021Z,12.98
2022-12-29T16:18:40.912Z,14.40
2022-12-29T16:21:21.606Z,15.73
2022-12-29T16:24:00.652Z,16.85
2022-12-29T16:26:35.551Z,14.48
2022-12-29T16:29:12.702Z,14.05
2022-12-29T16:31:56.351Z,12.68
2022-12-29T16:34:32.148Z,12.75
2022-12-29T16:37:07.521Z,17.77
2022-12-29T16:39:46.014Z,16.23
2022-12-29T16:42:38.458Z,18.00
2022-12-29T16:45:31.937Z,11.02
2022-12-29T16:48:17.618Z,15.20
2022-12-29T16:50:53.008Z,14.77
2022-12-29T16:53:30.067Z,15.52
2022-12-29T16:56:10.176Z,15.35
2022-12-29T16:58:48.875Z,13.00
2022-12-29T17:01:24.445Z,15.70
2022-12-29T17:04:00.236Z,13.88
2022-12-29T17:06:35.509Z,13.80
2022-12-29T17:09:22.650Z,12.68
2022-12-29T17:12:10.114Z,15.18
2022-12-29T17:14:54.598Z,12.15
2022-12-29T17:17:38.236Z,13.68
2022-12-29T17:20:24.036Z,13.05
2022-12-29T17:23:01.919Z,10.40
2022-12-29T17:25:56.477Z,9.15
2022-12-29T17:28:37.670Z,10.77
2022-12-29T17:31:13.131Z,10.40
2022-12-29T17:33:48.001Z,7.72
2022-12-29T17:36:22.793Z,10.20
2022-12-29T17:38:58.472Z,9.68
2022-12-29T17:41:34.161Z,8.80
2022-12-29T17:44:11.022Z,9.73
2022-12-29T17:46:45.747Z,8.95
2022-12-29T17:49:22.027Z,6.72
2022-12-29T17:51:56.813Z,6.28
2022-12-29T17:54:31.682Z,7.55
2022-12-29T17:57:07.233Z,5.47
2022-12-29T17:59:44.384Z,6.35
2022-12-29T18:02:33.131Z,6.47
2022-12-29T18:05:07.931Z,5.65
2022-12-29T18:07:42.692Z,5.47
2022-12-29T18:10:18.064Z,5.43
2022-12-29T18:12:54.104Z,5.85
2022-12-29T18:15:42.592Z,6.15
2022-12-29T18:18:18.075Z,4.53
2022-12-29T18:20:53.614Z,4.18
2022-12-29T18:23:29.248Z,5.45
2022-12-29T18:26:05.304Z,5.47
2022-12-29T18:28:40.685Z,4.75
2022-12-29T18:31:21.986Z,4.68
2022-12-29T18:33:58.043Z,6.93
2022-12-29T18:36:33.404Z,3.50
2022-12-29T18:39:07.813Z,5.70
2022-12-29T18:41:42.689Z,3.42
2022-12-29T18:44:19.612Z,4.25
2022-12-29T18:46:56.641Z,4.47
2022-12-29T18:49:31.088Z,6.07
2022-12-29T18:52:05.575Z,4.43
2022-12-29T18:54:40.392Z,5.68
2022-12-29T18:57:15.489Z,5.20
2022-12-29T18:59:51.413Z,6.78
2022-12-29T19:02:30.127Z,4.72
2022-12-29T19:05:08.609Z,5.97
2022-12-29T19:07:43.961Z,4.05
2022-12-29T19:10:19.302Z,5.03
2022-12-29T19:12:55.726Z,4.95
2022-12-29T19:15:33.406Z,3.75
2022-12-29T19:21:07.933Z,4.45
2022-12-29T19:23:43.710Z,3.65
2022-12-29T19:26:32.924Z,4.72
2022-12-29T19:29:09.144Z,4.78
2022-12-29T19:31:47.691Z,4.47
2022-12-29T19:34:27.824Z,3.75
2022-12-29T19:37:04.530Z,4.05
2022-12-29T19:39:42.285Z,3.80
2022-12-29T19:42:17.976Z,4.43
2022-12-29T19:44:54.278Z,3.88
2022-12-29T19:47:32.092Z,4.53
2022-12-29T19:50:10.764Z,3.28
2022-12-29T19:52:48.436Z,4.13
2022-12-29T19:55:26.520Z,5.75
2022-12-29T19:58:03.458Z,4.78
2022-12-29T20:00:37.899Z,3.95
2022-12-29T20:03:13.233Z,3.28
2022-12-29T20:05:53.691Z,8.80
2022-12-29T20:08:29.451Z,6.07
2022-12-29T20:11:05.134Z,7.95
2022-12-29T20:13:40.071Z,7.40
2022-12-29T20:16:17.295Z,6.35
2022-12-29T20:18:53.672Z,8.40
2022-12-29T20:21:30.394Z,9.30
2022-12-29T20:24:04.911Z,13.65
2022-12-29T20:26:39.881Z,15.63
2022-12-29T20:29:14.559Z,11.60
2022-12-29T20:31:49.076Z,12.27
2022-12-29T20:34:25.039Z,9.27
2022-12-29T20:37:02.114Z,11.23
2022-12-29T20:39:37.595Z,12.02
2022-12-29T20:42:12.134Z,11.40
2022-12-29T20:44:52.149Z,14.98
2022-12-29T20:47:30.374Z,13.95
2022-12-29T20:50:06.124Z,10.93
2022-12-29T20:52:42.628Z,11.90
2022-12-29T20:55:20.481Z,14.20
2022-12-29T20:58:23.052Z,11.55
2022-12-29T21:00:51.734Z,14.43
2022-12-29T21:03:26.518Z,13.77
2022-12-29T21:06:02.210Z,17.33
2022-12-29T21:08:39.209Z,20.40
2022-12-29T21:11:14.870Z,26.15
2022-12-29T21:13:49.370Z,18.45
2022-12-29T21:16:24.474Z,19.33
2022-12-29T21:18:59.526Z,21.63
2022-12-29T21:21:34.807Z,20.27
2022-12-29T21:24:12.384Z,28.38
2022-12-29T21:26:49.743Z,24.38
2022-12-29T21:29:24.593Z,19.85
2022-12-29T21:32:05.736Z,19.83
2022-12-29T21:34:40.944Z,19.65
2022-12-29T21:37:21.629Z,27.05
2022-12-29T21:40:00.518Z,27.02
2022-12-29T21:42:35.946Z,22.33
2022-12-29T21:45:29.346Z,22.27
2022-12-29T21:48:20.624Z,18.20
2022-12-29T21:51:12.235Z,20.00
2022-12-29T21:53:48.078Z,20.88
2022-12-29T21:56:25.213Z,16.88
2022-12-29T21:59:16.088Z,27.67
2022-12-29T22:02:06.542Z,17.98
2022-12-29T22:04:57.633Z,20.25
2022-12-29T22:07:48.312Z,19.25
2022-12-29T22:10:39.496Z,24.25
2022-12-29T22:13:15.891Z,21.38
2022-12-29T22:15:50.769Z,17.35
2022-12-29T22:18:25.360Z,21.20
2022-12-29T22:21:00.815Z,21.80
2022-12-29T22:23:36.032Z,18.13
2022-12-29T22:26:12.504Z,21.27
2022-12-29T22:28:49.862Z,21.48
2022-12-29T22:31:31.236Z,17.58
2022-12-29T22:34:07.187Z,20.80
2022-12-29T22:36:41.852Z,21.77
2022-12-29T22:39:16.343Z,16.98
2022-12-29T22:41:54.182Z,17.42
2022-12-29T22:44:33.800Z,12.82
2022-12-29T22:47:11.367Z,15.80
2022-12-29T22:49:47.363Z,19.02
2022-12-29T22:52:26.275Z,18.05
2022-12-29T22:55:06.749Z,21.65
2022-12-29T22:57:42.565Z,15.98
2022-12-29T23:00:20.436Z,17.95
2022-12-29T23:02:56.804Z,17.55
2022-12-29T23:05:33.443Z,17.23
2022-12-29T23:08:09.252Z,15.05
2022-12-29T23:10:44.767Z,16.92
2022-12-29T23:13:21.797Z,12.80
2022-12-29T23:15:59.798Z,13.43
2022-12-29T23:18:35.517Z,16.35
2022-12-29T23:21:11.624Z,17.40
2022-12-29T23:24:05.534Z,16.83
2022-12-29T23:26:42.353Z,13.43
2022-12-29T23:29:20.287Z,16.42
2022-12-29T23:31:56.566Z,12.18
2022-12-29T23:34:31.085Z,17.50
2022-12-29T23:37:06.738Z,17.15
2022-12-29T23:39:41.200Z,14.73
2022-12-29T23:42:15.488Z,14.25
2022-12-29T23:44:50.359Z,15.55
2022-12-29T23:47:27.164Z,15.30
2022-12-29T23:50:01.867Z,12.10
2022-12-29T23:52:36.859Z,15.32
2022-12-29T23:55:12.149Z,16.42
2022-12-29T23:57:47.245Z,13.07
